sensor_id;sensor_type;location;lat;lon;timestamp;P1;durP1;ratioP1;P2;durP2;ratioP2
17921;SDS011;9086;50.966;3.144;2022-11-12T00:00:49;16.00;;;14.33;;
17921;SDS011;9086;50.966;3.144;2022-11-12T00:03:16;18.30;;;14.17;;
17921;SDS011;9086;50.966;3.144;2022-11-12T00:05:43;20.43;;;14.77;;
17921;SDS011;9086;50.966;3.144;2022-11-12T00:08:09;17.50;;;14.23;;
17921;SDS011;9086;50.966;3.144;2022-11-12T00:10:35;21.70;;;15.07;;
17921;SDS011;9086;50.966;3.144;2022-11-12T00:13:01;18.13;;;14.07;;
17921;SDS011;9086;50.966;3.144;2022-11-12T00:15:27;16.47;;;14.17;;
17921;SDS011;9086;50.966;3.144;2022-11-12T00:17:53;17.13;;;14.43;;
17921;SDS011;9086;50.966;3.144;2022-11-12T00:20:19;15.70;;;13.70;;
17921;SDS011;9086;50.966;3.144;2022-11-12T00:22:45;20.13;;;13.70;;
17921;SDS011;9086;50.966;3.144;2022-11-12T00:25:11;15.00;;;12.77;;
17921;SDS011;9086;50.966;3.144;2022-11-12T00:27:37;17.67;;;12.93;;
17921;SDS011;9086;50.966;3.144;2022-11-12T00:30:04;17.63;;;12.97;;
17921;SDS011;9086;50.966;3.144;2022-11-12T00:32:30;16.90;;;12.47;;
17921;SDS011;9086;50.966;3.144;2022-11-12T00:34:56;16.43;;;13.67;;
17921;SDS011;9086;50.966;3.144;2022-11-12T00:37:22;15.63;;;12.80;;
17921;SDS011;9086;50.966;3.144;2022-11-12T00:39:49;22.70;;;13.30;;
17921;SDS011;9086;50.966;3.144;2022-11-12T00:42:15;13.67;;;12.27;;
17921;SDS011;9086;50.966;3.144;2022-11-12T00:44:41;16.63;;;13.10;;
17921;SDS011;9086;50.966;3.144;2022-11-12T00:47:07;15.00;;;12.60;;
17921;SDS011;9086;50.966;3.144;2022-11-12T00:49:33;18.50;;;14.70;;
17921;SDS011;9086;50.966;3.144;2022-11-12T00:51:59;20.30;;;14.60;;
17921;SDS011;9086;50.966;3.144;2022-11-12T00:54:25;15.57;;;13.47;;
17921;SDS011;9086;50.966;3.144;2022-11-12T00:56:51;18.67;;;14.90;;
17921;SDS011;9086;50.966;3.144;2022-11-12T00:59:18;20.50;;;15.43;;
17921;SDS011;9086;50.966;3.144;2022-11-12T01:01:44;24.27;;;17.03;;
17921;SDS011;9086;50.966;3.144;2022-11-12T01:04:10;51.77;;;30.53;;
17921;SDS011;9086;50.966;3.144;2022-11-12T01:06:38;56.33;;;36.03;;
17921;SDS011;9086;50.966;3.144;2022-11-12T01:09:04;82.57;;;53.93;;
17921;SDS011;9086;50.966;3.144;2022-11-12T01:11:31;93.00;;;55.97;;
17921;SDS011;9086;50.966;3.144;2022-11-12T01:14:01;67.23;;;44.43;;
17921;SDS011;9086;50.966;3.144;2022-11-12T01:16:28;57.07;;;37.77;;
17921;SDS011;9086;50.966;3.144;2022-11-12T01:18:56;44.97;;;32.30;;
17921;SDS011;9086;50.966;3.144;2022-11-12T01:21:23;35.27;;;26.47;;
17921;SDS011;9086;50.966;3.144;2022-11-12T01:23:49;37.20;;;26.23;;
17921;SDS011;9086;50.966;3.144;2022-11-12T01:26:16;33.30;;;25.17;;
17921;SDS011;9086;50.966;3.144;2022-11-12T01:28:43;39.03;;;24.80;;
17921;SDS011;9086;50.966;3.144;2022-11-12T01:31:19;48.20;;;28.73;;
17921;SDS011;9086;50.966;3.144;2022-11-12T01:33:46;47.17;;;30.67;;
17921;SDS011;9086;50.966;3.144;2022-11-12T01:36:13;59.03;;;34.20;;
17921;SDS011;9086;50.966;3.144;2022-11-12T01:38:40;64.77;;;42.63;;
17921;SDS011;9086;50.966;3.144;2022-11-12T01:41:07;73.10;;;46.00;;
17921;SDS011;9086;50.966;3.144;2022-11-12T01:43:34;79.60;;;48.37;;
17921;SDS011;9086;50.966;3.144;2022-11-12T01:46:01;63.23;;;42.83;;
17921;SDS011;9086;50.966;3.144;2022-11-12T01:48:32;53.20;;;36.93;;
17921;SDS011;9086;50.966;3.144;2022-11-12T01:50:59;43.33;;;28.30;;
17921;SDS011;9086;50.966;3.144;2022-11-12T01:53:27;48.83;;;35.30;;
17921;SDS011;9086;50.966;3.144;2022-11-12T01:55:56;33.93;;;24.20;;
17921;SDS011;9086;50.966;3.144;2022-11-12T01:58:23;25.33;;;21.27;;
17921;SDS011;9086;50.966;3.144;2022-11-12T02:00:51;26.10;;;20.50;;
17921;SDS011;9086;50.966;3.144;2022-11-12T02:03:19;21.50;;;17.87;;
17921;SDS011;9086;50.966;3.144;2022-11-12T02:05:47;24.40;;;16.60;;
17921;SDS011;9086;50.966;3.144;2022-11-12T02:08:14;22.27;;;17.33;;
17921;SDS011;9086;50.966;3.144;2022-11-12T02:10:40;17.40;;;15.57;;
17921;SDS011;9086;50.966;3.144;2022-11-12T02:13:06;17.23;;;15.07;;
17921;SDS011;9086;50.966;3.144;2022-11-12T02:15:51;21.40;;;16.43;;
17921;SDS011;9086;50.966;3.144;2022-11-12T02:18:18;20.83;;;15.33;;
17921;SDS011;9086;50.966;3.144;2022-11-12T02:20:44;17.37;;;14.03;;
17921;SDS011;9086;50.966;3.144;2022-11-12T02:23:10;15.60;;;13.10;;
17921;SDS011;9086;50.966;3.144;2022-11-12T02:25:36;13.97;;;12.33;;
17921;SDS011;9086;50.966;3.144;2022-11-12T02:28:04;14.47;;;12.57;;
17921;SDS011;9086;50.966;3.144;2022-11-12T02:30:35;15.17;;;13.43;;
17921;SDS011;9086;50.966;3.144;2022-11-12T02:33:01;13.10;;;11.70;;
17921;SDS011;9086;50.966;3.144;2022-11-12T02:35:28;12.27;;;10.93;;
17921;SDS011;9086;50.966;3.144;2022-11-12T02:37:54;13.57;;;11.73;;
17921;SDS011;9086;50.966;3.144;2022-11-12T02:40:20;13.50;;;11.70;;
17921;SDS011;9086;50.966;3.144;2022-11-12T02:42:46;13.37;;;11.00;;
17921;SDS011;9086;50.966;3.144;2022-11-12T02:45:12;14.33;;;11.70;;
17921;SDS011;9086;50.966;3.144;2022-11-12T02:47:39;13.87;;;11.53;;
17921;SDS011;9086;50.966;3.144;2022-11-12T02:50:05;11.83;;;10.33;;
17921;SDS011;9086;50.966;3.144;2022-11-12T02:52:31;17.37;;;11.87;;
17921;SDS011;9086;50.966;3.144;2022-11-12T02:54:58;11.57;;;10.37;;
17921;SDS011;9086;50.966;3.144;2022-11-12T02:57:24;13.07;;;11.67;;
17921;SDS011;9086;50.966;3.144;2022-11-12T02:59:51;14.57;;;11.00;;
17921;SDS011;9086;50.966;3.144;2022-11-12T03:02:17;10.70;;;9.67;;
17921;SDS011;9086;50.966;3.144;2022-11-12T03:04:43;11.33;;;10.13;;
17921;SDS011;9086;50.966;3.144;2022-11-12T03:07:09;12.50;;;11.20;;
17921;SDS011;9086;50.966;3.144;2022-11-12T03:09:35;11.87;;;10.57;;
17921;SDS011;9086;50.966;3.144;2022-11-12T03:12:01;12.40;;;10.77;;
17921;SDS011;9086;50.966;3.144;2022-11-12T03:14:27;11.20;;;10.13;;
17921;SDS011;9086;50.966;3.144;2022-11-12T03:16:53;14.57;;;11.70;;
17921;SDS011;9086;50.966;3.144;2022-11-12T03:19:19;12.83;;;11.53;;
17921;SDS011;9086;50.966;3.144;2022-11-12T03:21:45;15.27;;;11.27;;
17921;SDS011;9086;50.966;3.144;2022-11-12T03:24:11;14.50;;;11.30;;
17921;SDS011;9086;50.966;3.144;2022-11-12T03:26:37;13.70;;;12.30;;
17921;SDS011;9086;50.966;3.144;2022-11-12T03:29:03;13.17;;;11.23;;
17921;SDS011;9086;50.966;3.144;2022-11-12T03:31:29;12.87;;;10.90;;
17921;SDS011;9086;50.966;3.144;2022-11-12T03:33:55;11.73;;;10.53;;
17921;SDS011;9086;50.966;3.144;2022-11-12T03:36:21;11.37;;;10.17;;
17921;SDS011;9086;50.966;3.144;2022-11-12T03:38:47;12.33;;;11.10;;
17921;SDS011;9086;50.966;3.144;2022-11-12T03:41:13;10.00;;;9.10;;
17921;SDS011;9086;50.966;3.144;2022-11-12T03:43:39;10.83;;;9.73;;
17921;SDS011;9086;50.966;3.144;2022-11-12T03:46:05;14.77;;;11.50;;
17921;SDS011;9086;50.966;3.144;2022-11-12T03:48:31;12.10;;;10.10;;
17921;SDS011;9086;50.966;3.144;2022-11-12T03:50:58;10.97;;;9.87;;
17921;SDS011;9086;50.966;3.144;2022-11-12T03:53:24;12.43;;;10.90;;
17921;SDS011;9086;50.966;3.144;2022-11-12T03:55:51;11.70;;;10.60;;
17921;SDS011;9086;50.966;3.144;2022-11-12T03:58:17;11.00;;;9.93;;
17921;SDS011;9086;50.966;3.144;2022-11-12T04:00:43;11.43;;;10.23;;
17921;SDS011;9086;50.966;3.144;2022-11-12T04:03:09;12.13;;;10.83;;
17921;SDS011;9086;50.966;3.144;2022-11-12T04:05:35;12.63;;;10.20;;
17921;SDS011;9086;50.966;3.144;2022-11-12T04:08:21;11.70;;;10.03;;
17921;SDS011;9086;50.966;3.144;2022-11-12T04:10:59;12.93;;;10.30;;
17921;SDS011;9086;50.966;3.144;2022-11-12T04:13:25;15.53;;;11.37;;
17921;SDS011;9086;50.966;3.144;2022-11-12T04:15:52;12.93;;;11.53;;
17921;SDS011;9086;50.966;3.144;2022-11-12T04:18:38;11.97;;;10.77;;
17921;SDS011;9086;50.966;3.144;2022-11-12T04:21:30;12.00;;;10.13;;
17921;SDS011;9086;50.966;3.144;2022-11-12T04:24:15;12.87;;;10.33;;
17921;SDS011;9086;50.966;3.144;2022-11-12T04:27:00;12.17;;;10.87;;
17921;SDS011;9086;50.966;3.144;2022-11-12T04:29:26;16.03;;;10.80;;
17921;SDS011;9086;50.966;3.144;2022-11-12T04:32:11;11.53;;;10.33;;
17921;SDS011;9086;50.966;3.144;2022-11-12T04:34:37;13.10;;;10.83;;
17921;SDS011;9086;50.966;3.144;2022-11-12T04:37:03;13.17;;;11.37;;
17921;SDS011;9086;50.966;3.144;2022-11-12T04:39:30;11.13;;;10.03;;
17921;SDS011;9086;50.966;3.144;2022-11-12T04:41:56;13.30;;;10.70;;
17921;SDS011;9086;50.966;3.144;2022-11-12T04:44:41;11.40;;;10.20;;
17921;SDS011;9086;50.966;3.144;2022-11-12T04:47:28;13.33;;;11.63;;
17921;SDS011;9086;50.966;3.144;2022-11-12T04:49:55;11.63;;;10.43;;
17921;SDS011;9086;50.966;3.144;2022-11-12T04:52:21;12.80;;;11.17;;
17921;SDS011;9086;50.966;3.144;2022-11-12T04:54:47;11.73;;;10.53;;
17921;SDS011;9086;50.966;3.144;2022-11-12T04:57:13;14.23;;;11.43;;
17921;SDS011;9086;50.966;3.144;2022-11-12T04:59:39;11.87;;;10.27;;
17921;SDS011;9086;50.966;3.144;2022-11-12T05:02:05;13.93;;;11.00;;
17921;SDS011;9086;50.966;3.144;2022-11-12T05:04:31;14.10;;;11.10;;
17921;SDS011;9086;50.966;3.144;2022-11-12T05:06:58;13.87;;;11.70;;
17921;SDS011;9086;50.966;3.144;2022-11-12T05:09:25;12.83;;;10.90;;
17921;SDS011;9086;50.966;3.144;2022-11-12T05:11:51;14.67;;;11.03;;
17921;SDS011;9086;50.966;3.144;2022-11-12T05:14:19;13.20;;;11.80;;
17921;SDS011;9086;50.966;3.144;2022-11-12T05:16:46;15.70;;;11.77;;
17921;SDS011;9086;50.966;3.144;2022-11-12T05:19:12;11.47;;;10.27;;
17921;SDS011;9086;50.966;3.144;2022-11-12T05:21:38;15.10;;;10.70;;
17921;SDS011;9086;50.966;3.144;2022-11-12T05:24:23;12.93;;;11.10;;
17921;SDS011;9086;50.966;3.144;2022-11-12T05:26:49;14.00;;;9.77;;
17921;SDS011;9086;50.966;3.144;2022-11-12T05:29:15;11.37;;;10.17;;
17921;SDS011;9086;50.966;3.144;2022-11-12T05:31:41;11.77;;;10.57;;
17921;SDS011;9086;50.966;3.144;2022-11-12T05:34:08;11.73;;;9.67;;
17921;SDS011;9086;50.966;3.144;2022-11-12T05:36:34;11.50;;;10.30;;
17921;SDS011;9086;50.966;3.144;2022-11-12T05:39:00;12.20;;;9.50;;
17921;SDS011;9086;50.966;3.144;2022-11-12T05:41:26;12.90;;;10.80;;
17921;SDS011;9086;50.966;3.144;2022-11-12T05:43:52;11.13;;;9.93;;
17921;SDS011;9086;50.966;3.144;2022-11-12T05:46:18;13.10;;;10.33;;
17921;SDS011;9086;50.966;3.144;2022-11-12T05:48:44;12.17;;;10.47;;
17921;SDS011;9086;50.966;3.144;2022-11-12T05:51:10;12.57;;;10.83;;
17921;SDS011;9086;50.966;3.144;2022-11-12T05:53:40;13.37;;;10.93;;
17921;SDS011;9086;50.966;3.144;2022-11-12T05:56:06;12.70;;;10.90;;
17921;SDS011;9086;50.966;3.144;2022-11-12T05:58:33;15.83;;;12.03;;
17921;SDS011;9086;50.966;3.144;2022-11-12T06:01:00;13.30;;;11.27;;
17921;SDS011;9086;50.966;3.144;2022-11-12T06:03:26;12.47;;;11.17;;
17921;SDS011;9086;50.966;3.144;2022-11-12T06:05:52;14.90;;;11.80;;
17921;SDS011;9086;50.966;3.144;2022-11-12T06:08:18;13.27;;;11.13;;
17921;SDS011;9086;50.966;3.144;2022-11-12T06:10:48;15.20;;;12.13;;
17921;SDS011;9086;50.966;3.144;2022-11-12T06:13:14;14.37;;;11.23;;
17921;SDS011;9086;50.966;3.144;2022-11-12T06:15:40;14.30;;;11.07;;
17921;SDS011;9086;50.966;3.144;2022-11-12T06:18:06;13.03;;;9.90;;
17921;SDS011;9086;50.966;3.144;2022-11-12T06:20:32;16.37;;;11.33;;
17921;SDS011;9086;50.966;3.144;2022-11-12T06:22:59;12.93;;;11.10;;
17921;SDS011;9086;50.966;3.144;2022-11-12T06:25:25;12.37;;;10.63;;
17921;SDS011;9086;50.966;3.144;2022-11-12T06:27:51;13.27;;;10.67;;
17921;SDS011;9086;50.966;3.144;2022-11-12T06:30:17;12.80;;;10.50;;
17921;SDS011;9086;50.966;3.144;2022-11-12T06:32:47;14.23;;;10.97;;
17921;SDS011;9086;50.966;3.144;2022-11-12T06:35:13;13.57;;;11.20;;
17921;SDS011;9086;50.966;3.144;2022-11-12T06:37:39;12.27;;;10.80;;
17921;SDS011;9086;50.966;3.144;2022-11-12T06:40:05;13.50;;;10.80;;
17921;SDS011;9086;50.966;3.144;2022-11-12T06:42:32;13.00;;;10.50;;
17921;SDS011;9086;50.966;3.144;2022-11-12T06:44:58;12.07;;;10.13;;
17921;SDS011;9086;50.966;3.144;2022-11-12T06:47:24;10.90;;;9.77;;
17921;SDS011;9086;50.966;3.144;2022-11-12T06:49:50;13.40;;;9.90;;
17921;SDS011;9086;50.966;3.144;2022-11-12T06:52:16;11.50;;;9.73;;
17921;SDS011;9086;50.966;3.144;2022-11-12T06:54:42;11.73;;;9.23;;
17921;SDS011;9086;50.966;3.144;2022-11-12T06:57:08;12.60;;;10.10;;
17921;SDS011;9086;50.966;3.144;2022-11-12T06:59:34;12.73;;;11.43;;
17921;SDS011;9086;50.966;3.144;2022-11-12T07:02:00;13.10;;;11.10;;
17921;SDS011;9086;50.966;3.144;2022-11-12T07:04:26;14.67;;;11.20;;
17921;SDS011;9086;50.966;3.144;2022-11-12T07:06:53;13.90;;;11.57;;
17921;SDS011;9086;50.966;3.144;2022-11-12T07:09:19;15.23;;;11.10;;
17921;SDS011;9086;50.966;3.144;2022-11-12T07:11:45;13.50;;;11.27;;
17921;SDS011;9086;50.966;3.144;2022-11-12T07:14:11;13.83;;;11.07;;
17921;SDS011;9086;50.966;3.144;2022-11-12T07:16:37;13.00;;;10.70;;
17921;SDS011;9086;50.966;3.144;2022-11-12T07:19:03;14.57;;;11.70;;
17921;SDS011;9086;50.966;3.144;2022-11-12T07:21:29;15.73;;;12.53;;
17921;SDS011;9086;50.966;3.144;2022-11-12T07:23:55;14.13;;;11.23;;
17921;SDS011;9086;50.966;3.144;2022-11-12T07:26:25;13.57;;;11.90;;
17921;SDS011;9086;50.966;3.144;2022-11-12T07:28:52;13.70;;;12.23;;
17921;SDS011;9086;50.966;3.144;2022-11-12T07:31:20;16.47;;;12.77;;
17921;SDS011;9086;50.966;3.144;2022-11-12T07:33:47;13.73;;;12.03;;
17921;SDS011;9086;50.966;3.144;2022-11-12T07:36:17;15.70;;;13.03;;
17921;SDS011;9086;50.966;3.144;2022-11-12T07:38:43;18.07;;;13.23;;
17921;SDS011;9086;50.966;3.144;2022-11-12T07:41:16;21.93;;;14.03;;
17921;SDS011;9086;50.966;3.144;2022-11-12T07:43:44;17.10;;;13.33;;
17921;SDS011;9086;50.966;3.144;2022-11-12T07:46:14;19.53;;;15.43;;
17921;SDS011;9086;50.966;3.144;2022-11-12T07:48:41;22.80;;;14.57;;
17921;SDS011;9086;50.966;3.144;2022-11-12T07:53:34;21.40;;;14.90;;
17921;SDS011;9086;50.966;3.144;2022-11-12T07:56:00;21.47;;;14.23;;
17921;SDS011;9086;50.966;3.144;2022-11-12T07:58:29;17.70;;;13.87;;
17921;SDS011;9086;50.966;3.144;2022-11-12T08:00:55;17.67;;;15.10;;
17921;SDS011;9086;50.966;3.144;2022-11-12T08:03:21;17.33;;;13.60;;
17921;SDS011;9086;50.966;3.144;2022-11-12T08:05:47;16.90;;;14.37;;
17921;SDS011;9086;50.966;3.144;2022-11-12T08:08:13;19.33;;;15.27;;
17921;SDS011;9086;50.966;3.144;2022-11-12T08:10:39;19.80;;;15.50;;
17921;SDS011;9086;50.966;3.144;2022-11-12T08:13:05;19.57;;;15.30;;
17921;SDS011;9086;50.966;3.144;2022-11-12T08:15:31;20.10;;;15.80;;
17921;SDS011;9086;50.966;3.144;2022-11-12T08:17:57;17.23;;;15.40;;
17921;SDS011;9086;50.966;3.144;2022-11-12T08:20:23;16.97;;;14.93;;
17921;SDS011;9086;50.966;3.144;2022-11-12T08:22:49;15.33;;;13.73;;
17921;SDS011;9086;50.966;3.144;2022-11-12T08:25:18;16.80;;;14.73;;
17921;SDS011;9086;50.966;3.144;2022-11-12T08:27:44;18.75;;;16.85;;
17921;SDS011;9086;50.966;3.144;2022-11-12T08:30:10;16.73;;;14.93;;
17921;SDS011;9086;50.966;3.144;2022-11-12T08:32:37;15.57;;;13.67;;
17921;SDS011;9086;50.966;3.144;2022-11-12T08:35:03;14.90;;;12.87;;
17921;SDS011;9086;50.966;3.144;2022-11-12T08:37:29;17.13;;;13.80;;
17921;SDS011;9086;50.966;3.144;2022-11-12T08:39:55;17.33;;;13.47;;
17921;SDS011;9086;50.966;3.144;2022-11-12T08:42:21;17.03;;;14.33;;
17921;SDS011;9086;50.966;3.144;2022-11-12T08:44:47;32.60;;;15.60;;
17921;SDS011;9086;50.966;3.144;2022-11-12T08:47:13;24.23;;;13.57;;
17921;SDS011;9086;50.966;3.144;2022-11-12T08:49:39;38.30;;;13.60;;
17921;SDS011;9086;50.966;3.144;2022-11-12T08:52:05;54.67;;;15.97;;
17921;SDS011;9086;50.966;3.144;2022-11-12T08:54:31;17.30;;;13.70;;
17921;SDS011;9086;50.966;3.144;2022-11-12T08:56:57;95.03;;;17.43;;
17921;SDS011;9086;50.966;3.144;2022-11-12T08:59:23;62.07;;;14.20;;
17921;SDS011;9086;50.966;3.144;2022-11-12T09:01:49;36.50;;;13.10;;
17921;SDS011;9086;50.966;3.144;2022-11-12T09:04:15;55.20;;;14.07;;
17921;SDS011;9086;50.966;3.144;2022-11-12T09:06:41;82.23;;;14.57;;
17921;SDS011;9086;50.966;3.144;2022-11-12T09:09:07;58.37;;;14.97;;
17921;SDS011;9086;50.966;3.144;2022-11-12T09:11:34;59.97;;;15.00;;
17921;SDS011;9086;50.966;3.144;2022-11-12T09:14:00;69.80;;;16.27;;
17921;SDS011;9086;50.966;3.144;2022-11-12T09:16:26;76.30;;;16.97;;
17921;SDS011;9086;50.966;3.144;2022-11-12T09:18:52;50.87;;;16.50;;
17921;SDS011;9086;50.966;3.144;2022-11-12T09:21:18;65.77;;;16.23;;
17921;SDS011;9086;50.966;3.144;2022-11-12T09:23:48;66.90;;;15.97;;
17921;SDS011;9086;50.966;3.144;2022-11-12T09:26:14;57.60;;;16.53;;
17921;SDS011;9086;50.966;3.144;2022-11-12T09:28:40;49.77;;;15.47;;
17921;SDS011;9086;50.966;3.144;2022-11-12T09:31:07;39.63;;;14.90;;
17921;SDS011;9086;50.966;3.144;2022-11-12T09:33:33;53.67;;;15.00;;
17921;SDS011;9086;50.966;3.144;2022-11-12T09:35:59;35.67;;;15.90;;
17921;SDS011;9086;50.966;3.144;2022-11-12T09:38:26;53.80;;;16.23;;
17921;SDS011;9086;50.966;3.144;2022-11-12T09:43:22;58.40;;;20.47;;
17921;SDS011;9086;50.966;3.144;2022-11-12T09:45:50;46.73;;;20.80;;
17921;SDS011;9086;50.966;3.144;2022-11-12T09:48:19;57.37;;;22.23;;
17921;SDS011;9086;50.966;3.144;2022-11-12T09:53:52;62.10;;;24.17;;
17921;SDS011;9086;50.966;3.144;2022-11-12T09:56:11;81.70;;;24.00;;
17921;SDS011;9086;50.966;3.144;2022-11-12T09:58:38;41.53;;;19.87;;
17921;SDS011;9086;50.966;3.144;2022-11-12T10:01:14;53.00;;;21.10;;
17921;SDS011;9086;50.966;3.144;2022-11-12T10:06:23;59.57;;;23.73;;
17921;SDS011;9086;50.966;3.144;2022-11-12T10:09:04;68.93;;;21.40;;
17921;SDS011;9086;50.966;3.144;2022-11-12T10:14:22;67.83;;;23.97;;
17921;SDS011;9086;50.966;3.144;2022-11-12T10:16:56;84.60;;;24.40;;
17921;SDS011;9086;50.966;3.144;2022-11-12T10:22:18;58.50;;;16.73;;
17921;SDS011;9086;50.966;3.144;2022-11-12T10:24:46;29.10;;;14.43;;
17921;SDS011;9086;50.966;3.144;2022-11-12T10:27:19;41.37;;;13.30;;
17921;SDS011;9086;50.966;3.144;2022-11-12T10:29:59;49.93;;;13.47;;
17921;SDS011;9086;50.966;3.144;2022-11-12T10:32:26;25.77;;;10.90;;
17921;SDS011;9086;50.966;3.144;2022-11-12T10:34:52;36.97;;;12.60;;
17921;SDS011;9086;50.966;3.144;2022-11-12T10:39:47;31.77;;;15.63;;
17921;SDS011;9086;50.966;3.144;2022-11-12T10:42:14;23.43;;;14.23;;
17921;SDS011;9086;50.966;3.144;2022-11-12T10:44:41;33.63;;;16.13;;
17921;SDS011;9086;50.966;3.144;2022-11-12T10:50:03;41.23;;;17.50;;
17921;SDS011;9086;50.966;3.144;2022-11-12T10:52:30;44.30;;;16.90;;
17921;SDS011;9086;50.966;3.144;2022-11-12T10:57:29;41.63;;;22.90;;
17921;SDS011;9086;50.966;3.144;2022-11-12T11:07:52;44.30;;;18.67;;
17921;SDS011;9086;50.966;3.144;2022-11-12T11:10:26;44.47;;;19.13;;
17921;SDS011;9086;50.966;3.144;2022-11-12T11:15:37;34.03;;;17.03;;
17921;SDS011;9086;50.966;3.144;2022-11-12T11:18:04;29.13;;;15.73;;
17921;SDS011;9086;50.966;3.144;2022-11-12T11:20:33;26.03;;;13.37;;
17921;SDS011;9086;50.966;3.144;2022-11-12T11:23:02;50.10;;;17.57;;
17921;SDS011;9086;50.966;3.144;2022-11-12T11:25:32;37.40;;;17.57;;
17921;SDS011;9086;50.966;3.144;2022-11-12T11:28:16;37.17;;;18.67;;
17921;SDS011;9086;50.966;3.144;2022-11-12T11:30:51;36.17;;;17.67;;
17921;SDS011;9086;50.966;3.144;2022-11-12T11:33:22;26.90;;;16.73;;
17921;SDS011;9086;50.966;3.144;2022-11-12T11:48:19;30.67;;;15.90;;
17921;SDS011;9086;50.966;3.144;2022-11-12T11:50:53;28.57;;;19.13;;
17921;SDS011;9086;50.966;3.144;2022-11-12T11:53:22;27.17;;;18.37;;
17921;SDS011;9086;50.966;3.144;2022-11-12T11:58:44;19.27;;;15.27;;
17921;SDS011;9086;50.966;3.144;2022-11-12T12:01:15;19.13;;;15.63;;
17921;SDS011;9086;50.966;3.144;2022-11-12T12:03:47;25.80;;;14.33;;
17921;SDS011;9086;50.966;3.144;2022-11-12T12:06:19;23.97;;;15.00;;
17921;SDS011;9086;50.966;3.144;2022-11-12T12:09:02;30.40;;;14.90;;
17921;SDS011;9086;50.966;3.144;2022-11-12T12:11:38;20.33;;;13.33;;
17921;SDS011;9086;50.966;3.144;2022-11-12T12:16:52;22.80;;;15.40;;
17921;SDS011;9086;50.966;3.144;2022-11-12T12:19:26;21.77;;;15.90;;
17921;SDS011;9086;50.966;3.144;2022-11-12T12:21:55;26.15;;;20.92;;
17921;SDS011;9086;50.966;3.144;2022-11-12T12:24:28;25.40;;;18.60;;
17921;SDS011;9086;50.966;3.144;2022-11-12T12:27:02;19.17;;;15.23;;
17921;SDS011;9086;50.966;3.144;2022-11-12T12:29:38;25.90;;;19.20;;
17921;SDS011;9086;50.966;3.144;2022-11-12T12:32:21;23.20;;;16.77;;
17921;SDS011;9086;50.966;3.144;2022-11-12T12:35:05;15.83;;;12.80;;
17921;SDS011;9086;50.966;3.144;2022-11-12T12:37:40;17.67;;;14.53;;
17921;SDS011;9086;50.966;3.144;2022-11-12T12:40:13;19.63;;;16.77;;
17921;SDS011;9086;50.966;3.144;2022-11-12T12:42:44;23.23;;;18.43;;
17921;SDS011;9086;50.966;3.144;2022-11-12T12:45:55;24.53;;;17.50;;
17921;SDS011;9086;50.966;3.144;2022-11-12T12:48:01;31.50;;;16.17;;
17921;SDS011;9086;50.966;3.144;2022-11-12T12:50:28;18.73;;;15.23;;
17921;SDS011;9086;50.966;3.144;2022-11-12T12:52:59;21.03;;;16.33;;
17921;SDS011;9086;50.966;3.144;2022-11-12T12:55:38;20.57;;;16.20;;
17921;SDS011;9086;50.966;3.144;2022-11-12T12:58:13;22.47;;;16.73;;
17921;SDS011;9086;50.966;3.144;2022-11-12T13:00:40;21.33;;;15.73;;
17921;SDS011;9086;50.966;3.144;2022-11-12T13:03:11;20.13;;;15.13;;
17921;SDS011;9086;50.966;3.144;2022-11-12T13:05:37;17.17;;;14.37;;
17921;SDS011;9086;50.966;3.144;2022-11-12T13:08:08;25.23;;;15.23;;
17921;SDS011;9086;50.966;3.144;2022-11-12T13:15:41;19.17;;;14.70;;
17921;SDS011;9086;50.966;3.144;2022-11-12T13:18:07;25.00;;;16.07;;
17921;SDS011;9086;50.966;3.144;2022-11-12T13:20:35;21.63;;;16.33;;
17921;SDS011;9086;50.966;3.144;2022-11-12T13:23:02;24.10;;;18.87;;
17921;SDS011;9086;50.966;3.144;2022-11-12T13:25:30;34.53;;;17.73;;
17921;SDS011;9086;50.966;3.144;2022-11-12T13:28:04;22.83;;;17.53;;
17921;SDS011;9086;50.966;3.144;2022-11-12T13:32:57;22.30;;;17.13;;
17921;SDS011;9086;50.966;3.144;2022-11-12T13:35:24;33.40;;;25.93;;
17921;SDS011;9086;50.966;3.144;2022-11-12T13:40:32;39.83;;;24.20;;
17921;SDS011;9086;50.966;3.144;2022-11-12T13:45:43;29.90;;;21.30;;
17921;SDS011;9086;50.966;3.144;2022-11-12T13:48:29;26.07;;;18.30;;
17921;SDS011;9086;50.966;3.144;2022-11-12T13:50:58;45.73;;;34.00;;
17921;SDS011;9086;50.966;3.144;2022-11-12T13:53:26;44.53;;;31.20;;
17921;SDS011;9086;50.966;3.144;2022-11-12T13:55:53;32.87;;;23.47;;
17921;SDS011;9086;50.966;3.144;2022-11-12T13:58:29;38.00;;;25.80;;
17921;SDS011;9086;50.966;3.144;2022-11-12T14:00:57;45.93;;;27.37;;
17921;SDS011;9086;50.966;3.144;2022-11-12T14:03:25;46.73;;;30.40;;
17921;SDS011;9086;50.966;3.144;2022-11-12T14:05:53;49.93;;;31.60;;
17921;SDS011;9086;50.966;3.144;2022-11-12T14:21:19;39.57;;;22.00;;
17921;SDS011;9086;50.966;3.144;2022-11-12T14:23:45;29.33;;;22.33;;
17921;SDS011;9086;50.966;3.144;2022-11-12T14:26:12;30.20;;;19.83;;
17921;SDS011;9086;50.966;3.144;2022-11-12T14:28:38;26.83;;;20.10;;
17921;SDS011;9086;50.966;3.144;2022-11-12T14:31:12;24.37;;;16.77;;
17921;SDS011;9086;50.966;3.144;2022-11-12T14:33:38;25.30;;;19.53;;
17921;SDS011;9086;50.966;3.144;2022-11-12T14:36:05;27.60;;;19.53;;
17921;SDS011;9086;50.966;3.144;2022-11-12T14:38:33;30.83;;;19.47;;
17921;SDS011;9086;50.966;3.144;2022-11-12T14:41:02;33.27;;;19.10;;
17921;SDS011;9086;50.966;3.144;2022-11-12T14:45:58;27.23;;;19.93;;
17921;SDS011;9086;50.966;3.144;2022-11-12T14:48:25;26.37;;;20.57;;
17921;SDS011;9086;50.966;3.144;2022-11-12T14:50:56;29.63;;;21.57;;
17921;SDS011;9086;50.966;3.144;2022-11-12T14:55:51;34.13;;;21.07;;
17921;SDS011;9086;50.966;3.144;2022-11-12T14:58:18;45.80;;;23.73;;
17921;SDS011;9086;50.966;3.144;2022-11-12T15:00:45;46.00;;;22.37;;
17921;SDS011;9086;50.966;3.144;2022-11-12T15:03:19;51.80;;;22.90;;
17921;SDS011;9086;50.966;3.144;2022-11-12T15:05:56;39.73;;;20.60;;
17921;SDS011;9086;50.966;3.144;2022-11-12T15:08:33;47.33;;;20.80;;
17921;SDS011;9086;50.966;3.144;2022-11-12T15:13:44;32.80;;;20.03;;
17921;SDS011;9086;50.966;3.144;2022-11-12T15:16:11;68.00;;;20.43;;
17921;SDS011;9086;50.966;3.144;2022-11-12T15:18:41;32.37;;;20.33;;
17921;SDS011;9086;50.966;3.144;2022-11-12T15:23:52;59.30;;;23.23;;
17921;SDS011;9086;50.966;3.144;2022-11-12T15:26:22;31.13;;;22.17;;
17921;SDS011;9086;50.966;3.144;2022-11-12T15:28:58;45.43;;;24.03;;
17921;SDS011;9086;50.966;3.144;2022-11-12T15:31:25;36.67;;;22.97;;
17921;SDS011;9086;50.966;3.144;2022-11-12T15:33:51;49.87;;;26.03;;
17921;SDS011;9086;50.966;3.144;2022-11-12T15:36:18;43.77;;;28.70;;
17921;SDS011;9086;50.966;3.144;2022-11-12T15:38:50;86.50;;;26.70;;
17921;SDS011;9086;50.966;3.144;2022-11-12T15:43:49;79.10;;;26.60;;
17921;SDS011;9086;50.966;3.144;2022-11-12T15:46:15;111.90;;;27.47;;
17921;SDS011;9086;50.966;3.144;2022-11-12T15:48:41;83.03;;;29.77;;
17921;SDS011;9086;50.966;3.144;2022-11-12T15:51:08;80.43;;;26.47;;
17921;SDS011;9086;50.966;3.144;2022-11-12T15:53:34;63.90;;;24.03;;
17921;SDS011;9086;50.966;3.144;2022-11-12T15:56:00;72.33;;;27.90;;
17921;SDS011;9086;50.966;3.144;2022-11-12T15:58:34;90.90;;;28.47;;
17921;SDS011;9086;50.966;3.144;2022-11-12T16:01:00;108.37;;;29.57;;
17921;SDS011;9086;50.966;3.144;2022-11-12T16:03:27;124.53;;;29.97;;
17921;SDS011;9086;50.966;3.144;2022-11-12T16:05:53;56.63;;;26.47;;
17921;SDS011;9086;50.966;3.144;2022-11-12T16:08:19;97.97;;;27.43;;
17921;SDS011;9086;50.966;3.144;2022-11-12T16:10:45;153.17;;;31.70;;
17921;SDS011;9086;50.966;3.144;2022-11-12T16:13:15;190.57;;;34.00;;